sensor_id;sensor_type;location;lat;lon;timestamp;pressure;altitude;pressure_sealevel;temperature;humidity
69689;BME280;56932;38.402;-96.176;2023-03-25T00:01:02;96567.12;;;22.55;23.60
69689;BME280;56932;38.402;-96.176;2023-03-25T00:03:29;96566.16;;;22.01;23.36
69689;BME280;56932;38.402;-96.176;2023-03-25T00:05:52;96566.23;;;22.29;23.51
69689;BME280;56932;38.402;-96.176;2023-03-25T00:08:17;96563.02;;;23.00;23.28
69689;BME280;56932;38.402;-96.176;2023-03-25T00:10:43;96558.09;;;22.45;23.33
69689;BME280;56932;38.402;-96.176;2023-03-25T00:13:08;96546.02;;;21.76;23.93
69689;BME280;56932;38.402;-96.176;2023-03-25T00:15:34;96540.89;;;21.97;23.70
69689;BME280;56932;38.402;-96.176;2023-03-25T00:17:59;96540.87;;;22.57;23.18
69689;BME280;56932;38.402;-96.176;2023-03-25T00:20:25;96547.26;;;22.79;22.94
69689;BME280;56932;38.402;-96.176;2023-03-25T00:22:50;96549.25;;;22.44;23.67
69689;BME280;56932;38.402;-96.176;2023-03-25T00:25:16;96547.95;;;22.34;23.34
69689;BME280;56932;38.402;-96.176;2023-03-25T00:27:41;96544.55;;;22.19;23.48
69689;BME280;56932;38.402;-96.176;2023-03-25T00:30:08;96533.70;;;21.99;23.61
69689;BME280;56932;38.402;-96.176;2023-03-25T00:32:32;96527.74;;;21.20;23.87
69689;BME280;56932;38.402;-96.176;2023-03-25T00:34:58;96526.49;;;22.67;22.98
69689;BME280;56932;38.402;-96.176;2023-03-25T00:37:23;96528.47;;;22.18;23.40
69689;BME280;56932;38.402;-96.176;2023-03-25T00:39:48;96529.85;;;22.60;23.23
69689;BME280;56932;38.402;-96.176;2023-03-25T00:42:15;96529.45;;;21.84;24.09
69689;BME280;56932;38.402;-96.176;2023-03-25T00:44:40;96526.90;;;22.45;23.10
69689;BME280;56932;38.402;-96.176;2023-03-25T00:47:05;96526.76;;;23.15;22.71
69689;BME280;56932;38.402;-96.176;2023-03-25T00:49:30;96528.89;;;21.96;23.07
69689;BME280;56932;38.402;-96.176;2023-03-25T00:51:56;96534.08;;;23.03;23.00
69689;BME280;56932;38.402;-96.176;2023-03-25T00:54:22;96538.28;;;22.91;23.07
69689;BME280;56932;38.402;-96.176;2023-03-25T00:56:47;96536.97;;;23.09;22.88
69689;BME280;56932;38.402;-96.176;2023-03-25T00:59:12;96532.67;;;23.01;22.79
69689;BME280;56932;38.402;-96.176;2023-03-25T01:01:38;96535.00;;;22.57;22.92
69689;BME280;56932;38.402;-96.176;2023-03-25T01:04:04;96540.09;;;22.57;23.17
69689;BME280;56932;38.402;-96.176;2023-03-25T01:06:33;96542.41;;;22.15;22.85
69689;BME280;56932;38.402;-96.176;2023-03-25T01:08:55;96544.42;;;23.03;22.92
69689;BME280;56932;38.402;-96.176;2023-03-25T01:11:22;96544.61;;;22.44;23.21
69689;BME280;56932;38.402;-96.176;2023-03-25T01:13:45;96544.03;;;22.43;23.23
69689;BME280;56932;38.402;-96.176;2023-03-25T01:16:11;96544.63;;;22.56;23.12
69689;BME280;56932;38.402;-96.176;2023-03-25T01:18:36;96547.26;;;22.59;22.86
69689;BME280;56932;38.402;-96.176;2023-03-25T01:21:02;96551.07;;;23.05;22.68
69689;BME280;56932;38.402;-96.176;2023-03-25T01:23:28;96553.41;;;21.95;23.01
69689;BME280;56932;38.402;-96.176;2023-03-25T01:25:53;96552.99;;;22.09;23.29
69689;BME280;56932;38.402;-96.176;2023-03-25T01:28:18;96551.30;;;22.39;23.27
69689;BME280;56932;38.402;-96.176;2023-03-25T01:30:44;96548.17;;;22.20;23.26
69689;BME280;56932;38.402;-96.176;2023-03-25T01:33:09;96549.38;;;22.38;23.16
69689;BME280;56932;38.402;-96.176;2023-03-25T01:35:35;96556.72;;;22.82;22.85
69689;BME280;56932;38.402;-96.176;2023-03-25T01:38:00;96561.79;;;22.51;23.19
69689;BME280;56932;38.402;-96.176;2023-03-25T01:40:27;96564.35;;;22.28;23.32
69689;BME280;56932;38.402;-96.176;2023-03-25T01:42:51;96563.78;;;22.41;23.50
69689;BME280;56932;38.402;-96.176;2023-03-25T01:45:22;96560.49;;;22.35;24.05
69689;BME280;56932;38.402;-96.176;2023-03-25T01:47:43;96568.49;;;22.32;23.72
69689;BME280;56932;38.402;-96.176;2023-03-25T01:50:08;96572.13;;;22.39;23.66
69689;BME280;56932;38.402;-96.176;2023-03-25T01:52:34;96573.01;;;22.21;23.65
69689;BME280;56932;38.402;-96.176;2023-03-25T01:54:59;96573.09;;;23.02;23.65
69689;BME280;56932;38.402;-96.176;2023-03-25T01:57:25;96572.66;;;22.66;23.35
69689;BME280;56932;38.402;-96.176;2023-03-25T01:59:51;96575.36;;;22.52;23.67
69689;BME280;56932;38.402;-96.176;2023-03-25T02:02:17;96574.71;;;23.05;23.68
69689;BME280;56932;38.402;-96.176;2023-03-25T02:04:46;96579.13;;;22.34;23.87
69689;BME280;56932;38.402;-96.176;2023-03-25T02:07:07;96584.31;;;22.35;23.85
69689;BME280;56932;38.402;-96.176;2023-03-25T02:09:33;96586.52;;;21.98;24.07
69689;BME280;56932;38.402;-96.176;2023-03-25T02:11:58;96590.98;;;22.34;23.92
69689;BME280;56932;38.402;-96.176;2023-03-25T02:14:27;96588.51;;;21.64;24.50
69689;BME280;56932;38.402;-96.176;2023-03-25T02:16:56;96593.49;;;22.50;23.74
69689;BME280;56932;38.402;-96.176;2023-03-25T02:29:02;96606.25;;;22.14;24.23
69689;BME280;56932;38.402;-96.176;2023-03-25T02:38:42;96591.94;;;22.55;23.30
69689;BME280;56932;38.402;-96.176;2023-03-25T02:41:07;96588.81;;;22.81;23.48
69689;BME280;56932;38.402;-96.176;2023-03-25T02:43:32;96587.22;;;21.80;23.66
69689;BME280;56932;38.402;-96.176;2023-03-25T02:45:58;96588.28;;;22.12;23.81
69689;BME280;56932;38.402;-96.176;2023-03-25T02:48:24;96596.46;;;22.93;23.31
69689;BME280;56932;38.402;-96.176;2023-03-25T02:50:51;96599.48;;;22.70;23.26
69689;BME280;56932;38.402;-96.176;2023-03-25T02:53:14;96598.22;;;22.14;23.99
69689;BME280;56932;38.402;-96.176;2023-03-25T02:55:37;96595.30;;;21.69;24.34
69689;BME280;56932;38.402;-96.176;2023-03-25T02:58:05;96595.27;;;22.29;23.78
69689;BME280;56932;38.402;-96.176;2023-03-25T03:00:29;96591.81;;;21.50;23.77
69689;BME280;56932;38.402;-96.176;2023-03-25T03:02:56;96597.21;;;22.05;23.69
69689;BME280;56932;38.402;-96.176;2023-03-25T03:05:23;96598.07;;;22.85;23.38
69689;BME280;56932;38.402;-96.176;2023-03-25T03:07:46;96597.46;;;22.36;23.36
69689;BME280;56932;38.402;-96.176;2023-03-25T03:10:15;96602.05;;;22.48;23.46
69689;BME280;56932;38.402;-96.176;2023-03-25T03:12:47;96602.86;;;22.36;23.30
69689;BME280;56932;38.402;-96.176;2023-03-25T03:15:11;96605.87;;;22.64;23.49
69689;BME280;56932;38.402;-96.176;2023-03-25T03:17:34;96612.85;;;22.21;23.39
69689;BME280;56932;38.402;-96.176;2023-03-25T03:19:57;96614.73;;;21.91;23.60
69689;BME280;56932;38.402;-96.176;2023-03-25T03:22:31;96613.25;;;22.79;23.25
69689;BME280;56932;38.402;-96.176;2023-03-25T03:24:46;96620.07;;;22.21;23.28
69689;BME280;56932;38.402;-96.176;2023-03-25T03:27:13;96626.19;;;22.52;23.23
69689;BME280;56932;38.402;-96.176;2023-03-25T03:29:36;96626.28;;;22.26;23.21
69689;BME280;56932;38.402;-96.176;2023-03-25T03:32:03;96619.92;;;22.39;23.48
69689;BME280;56932;38.402;-96.176;2023-03-25T03:34:28;96616.22;;;22.18;23.27
69689;BME280;56932;38.402;-96.176;2023-03-25T03:36:53;96611.64;;;22.42;23.24
69689;BME280;56932;38.402;-96.176;2023-03-25T03:39:21;96612.73;;;21.27;24.25
69689;BME280;56932;38.402;-96.176;2023-03-25T03:41:43;96616.60;;;21.58;23.71
69689;BME280;56932;38.402;-96.176;2023-03-25T03:44:09;96626.20;;;21.34;24.18
69689;BME280;56932;38.402;-96.176;2023-03-25T03:46:36;96633.78;;;21.07;24.17
69689;BME280;56932;38.402;-96.176;2023-03-25T03:48:59;96635.99;;;20.63;24.99
69689;BME280;56932;38.402;-96.176;2023-03-25T03:51:27;96640.25;;;21.34;24.33
69689;BME280;56932;38.402;-96.176;2023-03-25T03:53:52;96645.36;;;20.49;24.90
69689;BME280;56932;38.402;-96.176;2023-03-25T03:56:17;96650.67;;;20.66;24.89
69689;BME280;56932;38.402;-96.176;2023-03-25T03:58:42;96649.59;;;20.44;24.85
69689;BME280;56932;38.402;-96.176;2023-03-25T04:01:09;96646.24;;;20.80;24.94
69689;BME280;56932;38.402;-96.176;2023-03-25T04:03:36;96644.36;;;19.81;24.96
69689;BME280;56932;38.402;-96.176;2023-03-25T04:06:01;96637.64;;;19.61;25.76
69689;BME280;56932;38.402;-96.176;2023-03-25T04:08:28;96635.34;;;20.44;25.15
69689;BME280;56932;38.402;-96.176;2023-03-25T04:10:52;96629.59;;;19.64;25.90
69689;BME280;56932;38.402;-96.176;2023-03-25T04:13:15;96630.00;;;19.55;26.03
69689;BME280;56932;38.402;-96.176;2023-03-25T04:15:39;96627.78;;;19.16;26.35
69689;BME280;56932;38.402;-96.176;2023-03-25T04:18:04;96626.32;;;19.93;25.56
69689;BME280;56932;38.402;-96.176;2023-03-25T04:20:32;96628.83;;;19.30;25.78
69689;BME280;56932;38.402;-96.176;2023-03-25T04:22:56;96629.65;;;19.72;25.98
69689;BME280;56932;38.402;-96.176;2023-03-25T04:25:21;96630.75;;;19.64;26.10
69689;BME280;56932;38.402;-96.176;2023-03-25T04:27:47;96629.62;;;19.74;25.52
69689;BME280;56932;38.402;-96.176;2023-03-25T04:30:13;96625.64;;;19.39;26.23
69689;BME280;56932;38.402;-96.176;2023-03-25T04:32:38;96620.72;;;19.32;26.07
69689;BME280;56932;38.402;-96.176;2023-03-25T04:35:04;96614.30;;;19.60;26.06
69689;BME280;56932;38.402;-96.176;2023-03-25T04:37:29;96608.90;;;18.69;26.14
69689;BME280;56932;38.402;-96.176;2023-03-25T04:39:54;96607.44;;;19.87;25.48
69689;BME280;56932;38.402;-96.176;2023-03-25T04:42:20;96607.06;;;19.00;26.51
69689;BME280;56932;38.402;-96.176;2023-03-25T04:44:45;96607.10;;;18.86;26.63
69689;BME280;56932;38.402;-96.176;2023-03-25T04:47:12;96594.92;;;18.83;26.63
69689;BME280;56932;38.402;-96.176;2023-03-25T04:49:36;96592.57;;;18.34;26.86
69689;BME280;56932;38.402;-96.176;2023-03-25T04:52:02;96597.66;;;19.67;25.75
69689;BME280;56932;38.402;-96.176;2023-03-25T04:54:28;96601.00;;;18.66;26.03
69689;BME280;56932;38.402;-96.176;2023-03-25T04:56:53;96602.47;;;18.63;26.72
69689;BME280;56932;38.402;-96.176;2023-03-25T04:59:19;96607.47;;;19.83;25.57
69689;BME280;56932;38.402;-96.176;2023-03-25T05:01:44;96603.36;;;19.42;26.01
69689;BME280;56932;38.402;-96.176;2023-03-25T05:04:10;96599.76;;;19.36;26.22
69689;BME280;56932;38.402;-96.176;2023-03-25T05:06:37;96598.59;;;18.69;26.16
69689;BME280;56932;38.402;-96.176;2023-03-25T05:09:01;96598.45;;;18.76;26.30
69689;BME280;56932;38.402;-96.176;2023-03-25T05:11:27;96591.18;;;18.56;26.26
69689;BME280;56932;38.402;-96.176;2023-03-25T05:13:51;96578.34;;;18.66;26.66
69689;BME280;56932;38.402;-96.176;2023-03-25T05:16:17;96570.58;;;19.25;26.06
69689;BME280;56932;38.402;-96.176;2023-03-25T05:18:43;96572.49;;;19.68;25.13
69689;BME280;56932;38.402;-96.176;2023-03-25T05:21:08;96573.11;;;18.79;26.46
69689;BME280;56932;38.402;-96.176;2023-03-25T05:23:34;96577.86;;;18.09;26.81
69689;BME280;56932;38.402;-96.176;2023-03-25T05:25:59;96584.75;;;18.67;26.55
69689;BME280;56932;38.402;-96.176;2023-03-25T05:28:25;96591.14;;;18.77;25.93
69689;BME280;56932;38.402;-96.176;2023-03-25T05:30:50;96600.03;;;18.67;26.67
69689;BME280;56932;38.402;-96.176;2023-03-25T05:33:16;96605.92;;;18.57;26.55
69689;BME280;56932;38.402;-96.176;2023-03-25T05:35:42;96605.58;;;18.97;26.27
69689;BME280;56932;38.402;-96.176;2023-03-25T05:38:07;96605.19;;;18.35;26.74
69689;BME280;56932;38.402;-96.176;2023-03-25T05:40:32;96604.36;;;18.85;26.70
69689;BME280;56932;38.402;-96.176;2023-03-25T05:42:58;96608.34;;;18.57;26.53
69689;BME280;56932;38.402;-96.176;2023-03-25T05:45:24;96605.89;;;18.48;26.64
69689;BME280;56932;38.402;-96.176;2023-03-25T05:47:49;96605.29;;;18.47;26.59
69689;BME280;56932;38.402;-96.176;2023-03-25T05:50:14;96608.46;;;18.57;26.91
69689;BME280;56932;38.402;-96.176;2023-03-25T05:52:40;96615.36;;;18.17;26.86
69689;BME280;56932;38.402;-96.176;2023-03-25T05:55:08;96617.12;;;18.52;26.56
69689;BME280;56932;38.402;-96.176;2023-03-25T05:57:31;96623.13;;;18.65;25.95
69689;BME280;56932;38.402;-96.176;2023-03-25T05:59:56;96619.99;;;19.18;25.83
69689;BME280;56932;38.402;-96.176;2023-03-25T06:02:22;96617.60;;;19.39;25.58
69689;BME280;56932;38.402;-96.176;2023-03-25T06:04:48;96617.29;;;18.48;26.70
69689;BME280;56932;38.402;-96.176;2023-03-25T06:07:13;96619.85;;;18.67;26.06
69689;BME280;56932;38.402;-96.176;2023-03-25T06:09:40;96608.89;;;17.97;26.97
69689;BME280;56932;38.402;-96.176;2023-03-25T06:12:04;96607.47;;;17.95;26.98
69689;BME280;56932;38.402;-96.176;2023-03-25T06:14:30;96606.17;;;17.71;26.72
69689;BME280;56932;38.402;-96.176;2023-03-25T06:16:55;96601.79;;;17.78;27.59
69689;BME280;56932;38.402;-96.176;2023-03-25T06:19:21;96600.07;;;18.80;26.58
69689;BME280;56932;38.402;-96.176;2023-03-25T06:21:46;96597.35;;;18.09;26.82
69689;BME280;56932;38.402;-96.176;2023-03-25T06:24:12;96596.38;;;18.32;26.77
69689;BME280;56932;38.402;-96.176;2023-03-25T06:26:38;96597.58;;;18.76;26.18
69689;BME280;56932;38.402;-96.176;2023-03-25T06:29:03;96600.33;;;18.46;26.93
69689;BME280;56932;38.402;-96.176;2023-03-25T06:31:29;96600.63;;;17.41;27.23
69689;BME280;56932;38.402;-96.176;2023-03-25T06:33:55;96598.30;;;18.09;27.02
69689;BME280;56932;38.402;-96.176;2023-03-25T06:36:20;96603.87;;;18.06;27.10
69689;BME280;56932;38.402;-96.176;2023-03-25T06:38:47;96612.44;;;18.46;26.72
69689;BME280;56932;38.402;-96.176;2023-03-25T06:41:11;96616.48;;;18.27;27.07
69689;BME280;56932;38.402;-96.176;2023-03-25T06:43:37;96622.57;;;17.63;27.51
69689;BME280;56932;38.402;-96.176;2023-03-25T06:46:02;96622.25;;;18.26;27.07
69689;BME280;56932;38.402;-96.176;2023-03-25T06:48:28;96625.05;;;17.86;26.69
69689;BME280;56932;38.402;-96.176;2023-03-25T06:50:53;96624.60;;;17.75;27.09
69689;BME280;56932;38.402;-96.176;2023-03-25T06:53:19;96628.05;;;18.27;26.74
69689;BME280;56932;38.402;-96.176;2023-03-25T06:55:44;96636.97;;;17.65;27.13
69689;BME280;56932;38.402;-96.176;2023-03-25T06:58:10;96641.60;;;18.58;26.62
69689;BME280;56932;38.402;-96.176;2023-03-25T07:00:35;96649.32;;;18.50;26.03
69689;BME280;56932;38.402;-96.176;2023-03-25T07:03:01;96643.24;;;18.38;26.57
69689;BME280;56932;38.402;-96.176;2023-03-25T07:05:27;96646.63;;;17.76;26.98
69689;BME280;56932;38.402;-96.176;2023-03-25T07:07:52;96641.65;;;18.37;26.35
69689;BME280;56932;38.402;-96.176;2023-03-25T07:10:18;96642.31;;;17.87;27.28
69689;BME280;56932;38.402;-96.176;2023-03-25T07:12:43;96648.29;;;18.00;26.64
69689;BME280;56932;38.402;-96.176;2023-03-25T07:15:09;96649.18;;;18.19;26.63
69689;BME280;56932;38.402;-96.176;2023-03-25T07:17:34;96646.89;;;18.25;26.14
69689;BME280;56932;38.402;-96.176;2023-03-25T07:20:00;96646.65;;;18.62;26.47
69689;BME280;56932;38.402;-96.176;2023-03-25T07:22:26;96643.23;;;18.20;26.50
69689;BME280;56932;38.402;-96.176;2023-03-25T07:24:51;96640.40;;;17.91;26.66
69689;BME280;56932;38.402;-96.176;2023-03-25T07:27:16;96633.21;;;17.45;27.38
69689;BME280;56932;38.402;-96.176;2023-03-25T07:29:42;96631.06;;;18.45;26.22
69689;BME280;56932;38.402;-96.176;2023-03-25T07:32:08;96627.32;;;18.31;26.71
69689;BME280;56932;38.402;-96.176;2023-03-25T07:34:33;96624.76;;;18.16;26.44
69689;BME280;56932;38.402;-96.176;2023-03-25T07:36:58;96621.68;;;17.97;26.55
69689;BME280;56932;38.402;-96.176;2023-03-25T07:39:24;96614.48;;;18.28;26.26
69689;BME280;56932;38.402;-96.176;2023-03-25T07:41:50;96613.97;;;17.13;27.84
69689;BME280;56932;38.402;-96.176;2023-03-25T07:44:15;96612.90;;;17.82;27.23
69689;BME280;56932;38.402;-96.176;2023-03-25T07:46:41;96606.19;;;17.75;27.21
69689;BME280;56932;38.402;-96.176;2023-03-25T07:49:06;96600.08;;;17.99;26.99
69689;BME280;56932;38.402;-96.176;2023-03-25T07:51:32;96598.96;;;17.01;27.23
69689;BME280;56932;38.402;-96.176;2023-03-25T07:53:57;96599.11;;;17.57;27.40
69689;BME280;56932;38.402;-96.176;2023-03-25T07:56:23;96599.67;;;18.03;26.69
69689;BME280;56932;38.402;-96.176;2023-03-25T07:58:48;96595.36;;;18.53;26.43
69689;BME280;56932;38.402;-96.176;2023-03-25T08:01:14;96605.34;;;18.27;26.68
69689;BME280;56932;38.402;-96.176;2023-03-25T08:03:40;96614.76;;;18.35;26.14
69689;BME280;56932;38.402;-96.176;2023-03-25T08:06:06;96616.30;;;17.86;27.01
69689;BME280;56932;38.402;-96.176;2023-03-25T08:08:31;96614.48;;;17.05;27.15
69689;BME280;56932;38.402;-96.176;2023-03-25T08:10:56;96610.94;;;17.40;27.05
69689;BME280;56932;38.402;-96.176;2023-03-25T08:13:22;96603.07;;;18.34;26.52
69689;BME280;56932;38.402;-96.176;2023-03-25T08:15:47;96603.16;;;17.34;27.30
69689;BME280;56932;38.402;-96.176;2023-03-25T08:18:13;96601.04;;;18.50;26.38
69689;BME280;56932;38.402;-96.176;2023-03-25T08:20:38;96593.42;;;17.66;26.46
69689;BME280;56932;38.402;-96.176;2023-03-25T08:23:04;96586.73;;;18.37;26.46
69689;BME280;56932;38.402;-96.176;2023-03-25T08:25:30;96587.18;;;17.05;27.05
69689;BME280;56932;38.402;-96.176;2023-03-25T08:27:55;96591.22;;;18.49;26.09
69689;BME280;56932;38.402;-96.176;2023-03-25T08:30:21;96599.81;;;18.28;26.48
69689;BME280;56932;38.402;-96.176;2023-03-25T08:32:46;96609.53;;;17.65;26.71
69689;BME280;56932;38.402;-96.176;2023-03-25T08:35:12;96614.05;;;18.11;26.67
69689;BME280;56932;38.402;-96.176;2023-03-25T08:37:37;96617.13;;;17.97;26.36
69689;BME280;56932;38.402;-96.176;2023-03-25T08:40:03;96627.13;;;18.61;26.07
69689;BME280;56932;38.402;-96.176;2023-03-25T08:42:28;96627.61;;;18.04;25.97
69689;BME280;56932;38.402;-96.176;2023-03-25T08:44:54;96624.16;;;17.84;26.88
69689;BME280;56932;38.402;-96.176;2023-03-25T08:47:19;96623.81;;;17.33;27.35
69689;BME280;56932;38.402;-96.176;2023-03-25T08:49:45;96623.36;;;17.41;26.87
69689;BME280;56932;38.402;-96.176;2023-03-25T08:52:10;96627.88;;;17.95;26.78
69689;BME280;56932;38.402;-96.176;2023-03-25T08:54:36;96626.75;;;17.54;26.41
69689;BME280;56932;38.402;-96.176;2023-03-25T08:57:01;96625.42;;;18.12;26.54
69689;BME280;56932;38.402;-96.176;2023-03-25T08:59:27;96627.60;;;16.72;27.19
69689;BME280;56932;38.402;-96.176;2023-03-25T09:01:52;96630.17;;;17.56;26.64
69689;BME280;56932;38.402;-96.176;2023-03-25T09:04:18;96631.23;;;18.50;26.11
69689;BME280;56932;38.402;-96.176;2023-03-25T09:06:43;96637.17;;;17.60;26.54
69689;BME280;56932;38.402;-96.176;2023-03-25T09:09:09;96640.79;;;18.32;26.32
69689;BME280;56932;38.402;-96.176;2023-03-25T09:11:35;96644.12;;;17.74;25.98
69689;BME280;56932;38.402;-96.176;2023-03-25T09:14:00;96649.75;;;18.97;25.53
69689;BME280;56932;38.402;-96.176;2023-03-25T09:16:26;96646.88;;;17.44;26.86
69689;BME280;56932;38.402;-96.176;2023-03-25T09:18:51;96648.63;;;19.09;25.75
69689;BME280;56932;38.402;-96.176;2023-03-25T09:21:16;96648.93;;;18.59;26.21
69689;BME280;56932;38.402;-96.176;2023-03-25T09:23:42;96648.13;;;18.90;25.57
69689;BME280;56932;38.402;-96.176;2023-03-25T09:26:07;96643.17;;;19.20;25.55
69689;BME280;56932;38.402;-96.176;2023-03-25T09:28:33;96638.62;;;18.26;25.62
69689;BME280;56932;38.402;-96.176;2023-03-25T09:30:59;96635.71;;;19.03;25.62
69689;BME280;56932;38.402;-96.176;2023-03-25T09:33:25;96634.99;;;18.75;25.97
69689;BME280;56932;38.402;-96.176;2023-03-25T09:35:49;96635.28;;;18.94;25.87
69689;BME280;56932;38.402;-96.176;2023-03-25T09:38:15;96632.92;;;18.89;25.97
69689;BME280;56932;38.402;-96.176;2023-03-25T09:40:41;96631.11;;;18.44;25.98
69689;BME280;56932;38.402;-96.176;2023-03-25T09:45:35;96627.29;;;17.84;26.49
69689;BME280;56932;38.402;-96.176;2023-03-25T09:48:02;96624.96;;;18.89;25.98
69689;BME280;56932;38.402;-96.176;2023-03-25T09:50:23;96620.09;;;18.95;25.95
69689;BME280;56932;38.402;-96.176;2023-03-25T09:52:53;96623.38;;;19.18;26.03
69689;BME280;56932;38.402;-96.176;2023-03-25T09:55:19;96626.71;;;19.15;26.07
69689;BME280;56932;38.402;-96.176;2023-03-25T09:57:44;96628.70;;;19.38;25.24
69689;BME280;56932;38.402;-96.176;2023-03-25T10:00:06;96630.85;;;19.85;25.02
69689;BME280;56932;38.402;-96.176;2023-03-25T10:02:34;96635.21;;;19.69;24.73
69689;BME280;56932;38.402;-96.176;2023-03-25T10:07:35;96630.26;;;19.20;25.94
69689;BME280;56932;38.402;-96.176;2023-03-25T10:09:51;96629.21;;;19.74;25.20
69689;BME280;56932;38.402;-96.176;2023-03-25T10:12:24;96631.11;;;19.33;25.85
69689;BME280;56932;38.402;-96.176;2023-03-25T10:14:43;96634.66;;;18.95;25.85
69689;BME280;56932;38.402;-96.176;2023-03-25T10:17:12;96640.18;;;19.64;25.63
69689;BME280;56932;38.402;-96.176;2023-03-25T10:19:39;96640.77;;;19.01;26.02
69689;BME280;56932;38.402;-96.176;2023-03-25T10:21:59;96643.52;;;18.82;26.68
69689;BME280;56932;38.402;-96.176;2023-03-25T10:24:23;96645.93;;;18.99;26.28
69689;BME280;56932;38.402;-96.176;2023-03-25T10:26:47;96648.15;;;19.84;25.21
69689;BME280;56932;38.402;-96.176;2023-03-25T10:29:13;96648.69;;;19.16;26.15
69689;BME280;56932;38.402;-96.176;2023-03-25T10:31:42;96653.23;;;19.06;25.58
69689;BME280;56932;38.402;-96.176;2023-03-25T10:34:05;96652.12;;;19.58;25.76
69689;BME280;56932;38.402;-96.176;2023-03-25T10:36:33;96650.55;;;19.35;25.74
69689;BME280;56932;38.402;-96.176;2023-03-25T10:38:53;96653.20;;;18.77;26.56
69689;BME280;56932;38.402;-96.176;2023-03-25T10:41:24;96651.91;;;18.75;26.54
69689;BME280;56932;38.402;-96.176;2023-03-25T10:43:43;96654.38;;;18.87;26.25
69689;BME280;56932;38.402;-96.176;2023-03-25T10:46:15;96656.85;;;19.01;26.37
69689;BME280;56932;38.402;-96.176;2023-03-25T10:48:35;96659.13;;;18.19;26.69
69689;BME280;56932;38.402;-96.176;2023-03-25T10:51:03;96659.75;;;19.88;25.55
69689;BME280;56932;38.402;-96.176;2023-03-25T10:53:27;96662.95;;;19.76;25.43
69689;BME280;56932;38.402;-96.176;2023-03-25T10:55:55;96658.77;;;18.84;26.51
69689;BME280;56932;38.402;-96.176;2023-03-25T10:58:18;96659.36;;;19.09;26.48
69689;BME280;56932;38.402;-96.176;2023-03-25T11:00:42;96661.97;;;18.74;26.53
69689;BME280;56932;38.402;-96.176;2023-03-25T11:03:15;96669.77;;;19.21;26.13
69689;BME280;56932;38.402;-96.176;2023-03-25T11:05:34;96669.63;;;18.83;25.76
69689;BME280;56932;38.402;-96.176;2023-03-25T11:08:00;96674.08;;;19.40;26.11
69689;BME280;56932;38.402;-96.176;2023-03-25T11:10:27;96674.46;;;19.37;25.78
69689;BME280;56932;38.402;-96.176;2023-03-25T11:12:51;96683.09;;;19.23;26.13
69689;BME280;56932;38.402;-96.176;2023-03-25T11:15:19;96690.86;;;19.53;26.17
69689;BME280;56932;38.402;-96.176;2023-03-25T11:17:41;96693.42;;;18.69;25.96
69689;BME280;56932;38.402;-96.176;2023-03-25T11:20:16;96696.47;;;18.55;26.55
69689;BME280;56932;38.402;-96.176;2023-03-25T11:22:35;96696.02;;;18.65;25.93
69689;BME280;56932;38.402;-96.176;2023-03-25T11:25:00;96693.14;;;19.66;25.88
69689;BME280;56932;38.402;-96.176;2023-03-25T11:27:25;96690.21;;;19.14;26.36
69689;BME280;56932;38.402;-96.176;2023-03-25T11:29:52;96690.91;;;18.83;26.38
69689;BME280;56932;38.402;-96.176;2023-03-25T11:32:15;96688.64;;;18.83;26.61
69689;BME280;56932;38.402;-96.176;2023-03-25T11:34:40;96686.00;;;18.64;26.59
69689;BME280;56932;38.402;-96.176;2023-03-25T11:37:13;96686.37;;;19.32;26.15
69689;BME280;56932;38.402;-96.176;2023-03-25T11:39:34;96691.22;;;18.59;25.87
69689;BME280;56932;38.402;-96.176;2023-03-25T11:41:57;96696.46;;;18.90;26.48
69689;BME280;56932;38.402;-96.176;2023-03-25T11:44:25;96701.17;;;19.14;26.22
69689;BME280;56932;38.402;-96.176;2023-03-25T11:46:49;96708.56;;;19.22;25.93
69689;BME280;56932;38.402;-96.176;2023-03-25T11:49:18;96713.36;;;19.41;26.01
69689;BME280;56932;38.402;-96.176;2023-03-25T11:51:38;96717.48;;;19.56;25.38
69689;BME280;56932;38.402;-96.176;2023-03-25T11:54:07;96725.93;;;18.62;26.26
69689;BME280;56932;38.402;-96.176;2023-03-25T11:56:33;96731.98;;;18.50;26.01
69689;BME280;56932;38.402;-96.176;2023-03-25T11:58:57;96735.31;;;19.36;25.56
69689;BME280;56932;38.402;-96.176;2023-03-25T12:01:23;96737.20;;;19.08;25.85
69689;BME280;56932;38.402;-96.176;2023-03-25T12:03:46;96735.25;;;18.42;26.21
69689;BME280;56932;38.402;-96.176;2023-03-25T12:06:17;96733.93;;;19.40;25.69
69689;BME280;56932;38.402;-96.176;2023-03-25T12:08:42;96736.00;;;19.24;25.56
69689;BME280;56932;38.402;-96.176;2023-03-25T12:11:06;96738.08;;;19.35;25.63
69689;BME280;56932;38.402;-96.176;2023-03-25T12:13:38;96737.18;;;18.54;26.18
69689;BME280;56932;38.402;-96.176;2023-03-25T12:16:01;96737.50;;;19.02;26.19
69689;BME280;56932;38.402;-96.176;2023-03-25T12:20:54;96735.16;;;18.67;26.01
69689;BME280;56932;38.402;-96.176;2023-03-25T12:23:17;96740.90;;;19.61;25.57
69689;BME280;56932;38.402;-96.176;2023-03-25T12:25:45;96747.93;;;18.88;25.74
69689;BME280;56932;38.402;-96.176;2023-03-25T12:28:15;96749.05;;;19.21;25.58
69689;BME280;56932;38.402;-96.176;2023-03-25T12:30:36;96749.62;;;18.36;26.41
69689;BME280;56932;38.402;-96.176;2023-03-25T12:32:58;96754.56;;;18.47;26.28
69689;BME280;56932;38.402;-96.176;2023-03-25T12:35:24;96761.02;;;18.59;26.38
69689;BME280;56932;38.402;-96.176;2023-03-25T12:37:55;96764.94;;;18.09;26.62
69689;BME280;56932;38.402;-96.176;2023-03-25T12:40:18;96770.65;;;18.65;26.29
69689;BME280;56932;38.402;-96.176;2023-03-25T12:42:41;96776.91;;;18.37;25.61
69689;BME280;56932;38.402;-96.176;2023-03-25T12:47:30;96781.77;;;18.76;25.85
69689;BME280;56932;38.402;-96.176;2023-03-25T12:50:02;96784.50;;;19.17;25.71
69689;BME280;56932;38.402;-96.176;2023-03-25T12:52:22;96783.81;;;19.46;25.43
69689;BME280;56932;38.402;-96.176;2023-03-25T12:54:53;96784.03;;;17.73;26.82
69689;BME280;56932;38.402;-96.176;2023-03-25T12:57:15;96792.10;;;19.59;25.27